createdAt,value
2022-12-13T00:01:50.354Z,70.70
2022-12-13T00:04:19.616Z,70.70
2022-12-13T00:06:49.085Z,70.20
2022-12-13T00:09:18.683Z,69.90
2022-12-13T00:11:52.484Z,69.70
2022-12-13T00:14:20.621Z,69.20
2022-12-13T00:16:51.208Z,68.70
2022-12-13T00:19:19.765Z,68.80
2022-12-13T00:21:48.369Z,68.80
2022-12-13T00:24:16.576Z,68.60
2022-12-13T00:26:44.848Z,68.60
2022-12-13T00:29:13.720Z,67.80
2022-12-13T00:34:31.978Z,67.90
2022-12-13T00:37:00.324Z,67.80
2022-12-13T00:39:29.174Z,67.60
2022-12-13T00:41:57.411Z,67.50
2022-12-13T00:44:25.951Z,67.80
2022-12-13T00:46:54.675Z,68.70
2022-12-13T00:49:22.891Z,68.20
2022-12-13T00:51:52.435Z,68.10
2022-12-13T00:54:20.731Z,68.60
2022-12-13T00:56:51.216Z,67.90
2022-12-13T00:59:19.331Z,67.90
2022-12-13T01:01:47.665Z,68.60
2022-12-13T01:04:15.877Z,68.60
2022-12-13T01:06:46.514Z,69.30
2022-12-13T01:09:21.283Z,70.00
2022-12-13T01:11:50.135Z,69.50
2022-12-13T01:14:19.490Z,68.70
2022-12-13T01:16:47.708Z,67.70
2022-12-13T01:19:16.461Z,67.80
2022-12-13T01:21:44.686Z,67.30
2022-12-13T01:24:12.866Z,66.70
2022-12-13T01:26:42.485Z,66.80
2022-12-13T01:29:11.584Z,66.40
2022-12-13T01:31:41.755Z,65.70
2022-12-13T01:34:14.211Z,65.90
2022-12-13T01:36:44.051Z,65.50
2022-12-13T01:39:15.306Z,65.50
2022-12-13T01:41:46.633Z,65.20
2022-12-13T01:44:52.254Z,65.00
2022-12-13T01:47:25.874Z,65.20
2022-12-13T01:49:57.085Z,65.30
2022-12-13T01:52:29.662Z,65.50
2022-12-13T01:55:03.368Z,65.60
2022-12-13T01:57:35.084Z,66.10
2022-12-13T02:00:03.750Z,66.80
2022-12-13T02:02:31.911Z,67.60
2022-12-13T02:05:08.053Z,67.80
2022-12-13T02:07:39.349Z,67.20
2022-12-13T02:10:09.526Z,66.70
2022-12-13T02:12:40.815Z,66.60
2022-12-13T02:15:12.980Z,66.30
2022-12-13T02:17:59.828Z,66.20
2022-12-13T02:20:58.713Z,66.10
2022-12-13T02:24:09.173Z,66.90
2022-12-13T02:26:52.003Z,67.90
2022-12-13T02:29:58.247Z,67.40
2022-12-13T02:32:33.042Z,67.60
2022-12-13T02:35:06.658Z,67.70
2022-12-13T02:37:46.755Z,67.00
2022-12-13T02:40:24.144Z,66.40
2022-12-13T02:42:59.215Z,65.60
2022-12-13T02:45:32.270Z,65.90
2022-12-13T02:48:04.051Z,65.00
2022-12-13T02:50:33.927Z,65.20
2022-12-13T02:53:03.592Z,66.00
2022-12-13T02:55:32.568Z,66.60
2022-12-13T02:58:00.749Z,66.50
2022-12-13T03:00:37.557Z,66.00
2022-12-13T03:03:22.192Z,64.90
2022-12-13T03:06:15.838Z,65.20
2022-12-13T03:08:56.290Z,65.40
2022-12-13T03:11:44.149Z,65.00
2022-12-13T03:14:14.342Z,64.30
2022-12-13T03:16:45.173Z,64.00
2022-12-13T03:19:15.164Z,64.60
2022-12-13T03:21:48.276Z,65.20
2022-12-13T03:24:19.321Z,65.50
2022-12-13T03:26:48.930Z,64.80
2022-12-13T03:29:23.626Z,64.10
2022-12-13T03:31:53.083Z,63.60
2022-12-13T03:34:23.680Z,63.30
2022-12-13T03:36:52.171Z,63.20
2022-12-13T03:39:21.070Z,62.90
2022-12-13T03:41:49.683Z,62.80
2022-12-13T03:44:18.019Z,62.90
2022-12-13T03:46:46.217Z,62.60
2022-12-13T03:49:17.302Z,62.10
2022-12-13T03:51:47.969Z,61.90
2022-12-13T03:54:16.297Z,61.60
2022-12-13T03:56:45.438Z,61.60
2022-12-13T03:59:13.564Z,60.80
2022-12-13T04:01:41.825Z,60.90
2022-12-13T04:04:09.991Z,61.30
2022-12-13T04:06:38.140Z,61.50
2022-12-13T04:09:07.616Z,61.00
2022-12-13T04:11:53.123Z,61.20
2022-12-13T04:14:22.502Z,61.10
2022-12-13T04:16:51.491Z,61.30
2022-12-13T04:19:23.334Z,62.20
2022-12-13T04:21:52.226Z,63.10
2022-12-13T04:24:21.790Z,64.10
2022-12-13T04:27:00.683Z,65.30
2022-12-13T04:29:34.461Z,65.70
2022-12-13T04:32:04.285Z,66.30
2022-12-13T04:34:37.131Z,67.10
2022-12-13T04:37:05.620Z,67.70
2022-12-13T04:39:35.197Z,68.10
2022-12-13T04:42:03.588Z,68.50
2022-12-13T04:44:36.602Z,68.50
2022-12-13T04:47:06.051Z,68.80
2022-12-13T04:49:34.477Z,69.30
2022-12-13T04:52:03.656Z,69.80
2022-12-13T04:54:36.159Z,70.10
2022-12-13T04:57:07.430Z,70.00
2022-12-13T04:59:35.746Z,71.20
2022-12-13T05:02:04.869Z,71.10
2022-12-13T05:04:33.596Z,71.40
2022-12-13T05:07:02.330Z,71.90
2022-12-13T05:09:35.281Z,71.80
2022-12-13T05:12:22.114Z,71.60
2022-12-13T05:14:52.257Z,71.70
2022-12-13T05:17:20.821Z,72.10
2022-12-13T05:19:49.049Z,71.70
2022-12-13T05:22:20.446Z,71.90
2022-12-13T05:24:49.659Z,72.20
2022-12-13T05:27:25.069Z,72.10
2022-12-13T05:30:03.115Z,72.40
2022-12-13T05:32:43.041Z,72.40
2022-12-13T05:35:13.791Z,72.50
2022-12-13T05:37:42.389Z,72.50
2022-12-13T05:40:11.407Z,72.70
2022-12-13T05:42:41.026Z,72.70
2022-12-13T05:45:10.402Z,72.70
2022-12-13T05:47:38.597Z,72.90
2022-12-13T05:50:07.504Z,73.00
2022-12-13T05:52:35.742Z,72.70
2022-12-13T05:55:04.121Z,72.50
2022-12-13T05:57:32.265Z,72.60
2022-12-13T06:00:05.146Z,72.30
2022-12-13T06:02:33.483Z,72.10
2022-12-13T06:05:01.677Z,71.80
2022-12-13T06:07:29.890Z,71.70
2022-12-13T06:10:10.402Z,72.00
2022-12-13T06:12:43.408Z,71.90
2022-12-13T06:15:22.421Z,72.10
2022-12-13T06:17:51.035Z,72.20
2022-12-13T06:20:23.673Z,71.80
2022-12-13T06:22:52.752Z,71.90
2022-12-13T06:25:31.606Z,72.30
2022-12-13T06:28:01.383Z,71.80
2022-12-13T06:30:31.314Z,72.70
2022-12-13T06:32:59.673Z,72.70
2022-12-13T06:35:30.233Z,72.40
2022-12-13T06:38:01.526Z,72.40
2022-12-13T06:40:30.752Z,72.70
2022-12-13T06:42:58.977Z,72.70
2022-12-13T06:45:27.584Z,72.80
2022-12-13T06:47:57.525Z,73.00
2022-12-13T06:50:25.996Z,73.30
2022-12-13T06:52:54.185Z,73.20
2022-12-13T06:55:23.574Z,73.30
2022-12-13T06:57:52.800Z,73.30
2022-12-13T07:00:22.275Z,73.20
2022-12-13T07:02:54.125Z,73.20
2022-12-13T07:05:25.013Z,73.10
2022-12-13T07:07:53.239Z,73.00
2022-12-13T07:10:22.174Z,72.90
2022-12-13T07:12:51.045Z,73.00
2022-12-13T07:15:19.321Z,73.00
2022-12-13T07:17:51.349Z,72.80
2022-12-13T07:20:22.823Z,73.20
2022-12-13T07:22:58.774Z,72.90
2022-12-13T07:25:29.487Z,73.20
2022-12-13T07:28:01.263Z,73.10
2022-12-13T07:30:30.854Z,73.00
2022-12-13T07:32:59.273Z,73.10
2022-12-13T07:35:27.424Z,72.80
2022-12-13T07:37:57.012Z,72.70
2022-12-13T07:40:25.520Z,73.10
2022-12-13T07:42:56.193Z,72.90
2022-12-13T07:45:24.741Z,73.00
2022-12-13T07:47:52.858Z,73.20
2022-12-13T07:50:24.588Z,73.20
2022-12-13T07:52:54.145Z,73.10
2022-12-13T07:55:32.950Z,73.10
2022-12-13T07:58:07.126Z,72.90
2022-12-13T08:00:35.550Z,73.00
2022-12-13T08:03:03.766Z,72.90
2022-12-13T08:05:38.953Z,72.90
2022-12-13T08:08:09.187Z,72.90
2022-12-13T08:10:39.245Z,73.30
2022-12-13T08:13:07.823Z,73.30
2022-12-13T08:15:35.935Z,73.10
2022-12-13T08:18:04.611Z,72.90
2022-12-13T08:20:33.504Z,73.10
2022-12-13T08:23:02.698Z,73.20
2022-12-13T08:25:31.673Z,73.10
2022-12-13T08:28:02.010Z,73.00
2022-12-13T08:30:31.681Z,73.20
2022-12-13T08:32:59.820Z,73.20
2022-12-13T08:35:34.863Z,73.30
2022-12-13T08:38:03.576Z,73.40
2022-12-13T08:40:31.688Z,73.20
2022-12-13T08:43:01.248Z,73.40
2022-12-13T08:45:30.746Z,73.10
2022-12-13T08:48:00.014Z,73.20
2022-12-13T08:50:28.575Z,73.30
2022-12-13T08:52:57.026Z,73.50
2022-12-13T08:55:31.494Z,73.40
2022-12-13T08:58:08.526Z,73.20
2022-12-13T09:00:37.787Z,73.30
2022-12-13T09:03:10.110Z,73.20
2022-12-13T09:05:39.095Z,73.20
2022-12-13T09:08:24.823Z,73.20
2022-12-13T09:11:00.773Z,73.40
2022-12-13T09:13:32.843Z,73.30
2022-12-13T09:16:04.903Z,72.70
2022-12-13T09:18:42.353Z,73.40
2022-12-13T09:21:12.453Z,73.40
2022-12-13T09:23:45.529Z,73.20
2022-12-13T09:26:16.443Z,73.30
2022-12-13T09:28:46.092Z,72.60
2022-12-13T09:31:16.305Z,72.90
2022-12-13T09:33:45.297Z,73.60
2022-12-13T09:36:15.444Z,73.90
2022-12-13T09:38:43.597Z,73.70
2022-12-13T09:41:28.637Z,73.50
2022-12-13T09:44:02.830Z,73.30
2022-12-13T09:46:34.281Z,73.20
2022-12-13T09:49:23.202Z,73.30
2022-12-13T09:52:11.716Z,73.20
2022-12-13T09:54:51.024Z,73.50
2022-12-13T09:57:31.298Z,73.40
2022-12-13T10:00:05.427Z,72.50
2022-12-13T10:02:38.922Z,73.10
2022-12-13T10:05:22.358Z,72.50
2022-12-13T10:07:54.070Z,72.40
2022-12-13T10:10:22.492Z,73.00
2022-12-13T10:12:56.190Z,73.00
2022-12-13T10:15:27.277Z,73.00
2022-12-13T10:17:56.539Z,72.50
2022-12-13T10:20:28.953Z,72.60
2022-12-13T10:23:31.359Z,72.40
2022-12-13T10:25:52.016Z,72.40
2022-12-13T10:28:27.367Z,72.20
2022-12-13T10:30:58.773Z,72.90
2022-12-13T10:33:30.706Z,72.70
2022-12-13T10:36:13.659Z,71.90
2022-12-13T10:38:43.626Z,72.80
2022-12-13T10:41:31.312Z,72.70
2022-12-13T10:44:25.247Z,72.50
2022-12-13T10:47:04.330Z,72.70
2022-12-13T10:49:40.361Z,72.70
2022-12-13T10:52:31.517Z,72.30
2022-12-13T10:55:22.995Z,73.00
2022-12-13T10:57:53.488Z,72.70
2022-12-13T11:00:35.192Z,72.50
2022-12-13T11:03:05.083Z,72.10
2022-12-13T11:05:35.669Z,72.20
2022-12-13T11:08:22.041Z,72.40
2022-12-13T11:10:59.315Z,72.70
2022-12-13T11:13:36.859Z,72.50
2022-12-13T11:16:06.637Z,72.30
2022-12-13T11:18:40.586Z,72.50
2022-12-13T11:21:08.908Z,72.70
2022-12-13T11:23:40.610Z,72.80
2022-12-13T11:26:12.377Z,72.80
2022-12-13T11:29:05.481Z,72.70
2022-12-13T11:31:43.828Z,73.00
2022-12-13T11:34:24.080Z,72.90
2022-12-13T11:36:59.695Z,73.40
2022-12-13T11:39:32.135Z,72.90
2022-12-13T11:42:05.590Z,73.30
2022-12-13T11:44:47.720Z,72.60
2022-12-13T11:47:24.212Z,72.60
2022-12-13T11:49:54.444Z,73.00
2022-12-13T11:52:28.402Z,73.00
2022-12-13T11:55:01.899Z,73.20
2022-12-13T11:57:41.008Z,73.20
2022-12-13T12:00:33.530Z,73.20
2022-12-13T12:03:18.597Z,73.10
2022-12-13T12:05:55.835Z,72.50
2022-12-13T12:08:43.473Z,73.10
2022-12-13T12:11:18.491Z,73.40
2022-12-13T12:13:52.307Z,73.20
2022-12-13T12:16:31.925Z,72.90
2022-12-13T12:19:01.147Z,73.30
2022-12-13T12:24:36.297Z,73.00
2022-12-13T12:27:22.455Z,72.70
2022-12-13T12:30:23.863Z,72.70
2022-12-13T12:33:04.030Z,73.40
2022-12-13T12:35:57.114Z,72.50
2022-12-13T12:39:02.124Z,72.80
2022-12-13T12:41:45.819Z,72.80
2022-12-13T12:44:30.862Z,72.90
2022-12-13T12:47:36.194Z,72.50
2022-12-13T12:50:21.007Z,72.50
2022-12-13T12:53:00.860Z,72.50
2022-12-13T12:55:41.420Z,72.50
2022-12-13T12:58:18.918Z,72.80
2022-12-13T13:00:57.626Z,72.80
2022-12-13T13:03:27.122Z,72.60
2022-12-13T13:06:02.640Z,72.70
2022-12-13T13:08:39.388Z,72.30
2022-12-13T13:11:24.351Z,72.30
2022-12-13T13:14:03.601Z,72.30
2022-12-13T13:16:35.559Z,72.20
2022-12-13T13:19:05.450Z,72.20
2022-12-13T13:21:46.246Z,72.20
2022-12-13T13:24:20.559Z,72.10
2022-12-13T13:26:52.385Z,72.40
2022-12-13T13:29:43.476Z,71.80
2022-12-13T13:32:31.168Z,72.00
2022-12-13T13:35:32.481Z,72.00
2022-12-13T13:38:03.878Z,72.20
2022-12-13T13:40:35.552Z,72.00
2022-12-13T13:43:13.941Z,72.10
2022-12-13T13:46:01.197Z,71.90
2022-12-13T13:48:43.229Z,72.00
2022-12-13T13:52:08.782Z,71.70
2022-12-13T13:55:08.307Z,71.50
2022-12-13T13:58:22.029Z,71.70
2022-12-13T14:01:16.399Z,71.30
2022-12-13T14:04:31.662Z,71.40
2022-12-13T14:07:32.455Z,71.50
2022-12-13T14:10:16.491Z,71.00
2022-12-13T14:13:45.149Z,70.70
2022-12-13T14:16:46.997Z,71.10
2022-12-13T14:19:56.493Z,70.90
2022-12-13T14:22:34.315Z,70.60
2022-12-13T14:25:25.571Z,70.90
2022-12-13T14:27:57.538Z,70.70
2022-12-13T14:30:29.202Z,71.00
2022-12-13T14:32:59.434Z,70.90
2022-12-13T14:35:29.782Z,70.90
2022-12-13T14:38:00.314Z,70.70
2022-12-13T14:40:32.010Z,70.60
2022-12-13T14:43:01.206Z,70.80
2022-12-13T14:45:31.404Z,70.70
2022-12-13T14:48:02.650Z,70.70
2022-12-13T14:50:35.776Z,71.20
2022-12-13T14:53:05.198Z,71.30
2022-12-13T14:55:36.564Z,71.60
2022-12-13T14:58:16.533Z,71.50
2022-12-13T15:00:45.992Z,71.70
2022-12-13T15:03:25.294Z,71.40
2022-12-13T15:05:57.122Z,71.60
2022-12-13T15:08:26.026Z,71.50
2022-12-13T15:10:56.144Z,71.70
2022-12-13T15:13:30.666Z,71.80
2022-12-13T15:16:01.893Z,71.80
2022-12-13T15:18:40.190Z,71.80
2022-12-13T15:21:22.645Z,71.60
2022-12-13T15:23:51.626Z,71.70
2022-12-13T15:26:28.071Z,71.70
2022-12-13T15:29:00.564Z,71.60
2022-12-13T15:31:29.116Z,71.50
2022-12-13T15:34:29.380Z,71.70
2022-12-13T15:37:01.079Z,71.80
2022-12-13T15:39:31.149Z,71.90
2022-12-13T15:41:59.932Z,71.90
2022-12-13T15:44:31.173Z,71.80
2022-12-13T15:47:04.109Z,72.00
2022-12-13T15:49:36.634Z,71.90
2022-12-13T15:52:06.187Z,72.10
2022-12-13T15:54:35.081Z,72.00
2022-12-13T15:57:14.426Z,72.20
2022-12-13T15:59:43.746Z,72.10
2022-12-13T16:02:17.314Z,72.30
2022-12-13T16:04:47.123Z,72.30
2022-12-13T16:07:24.463Z,72.10
2022-12-13T16:09:54.945Z,72.00
2022-12-13T16:12:26.519Z,71.90
2022-12-13T16:15:09.443Z,72.10
2022-12-13T16:17:37.980Z,72.10
2022-12-13T16:20:14.529Z,72.00
2022-12-13T16:22:43.343Z,72.00
2022-12-13T16:25:13.625Z,72.00
2022-12-13T16:27:42.108Z,71.80
2022-12-13T16:30:24.883Z,71.90
2022-12-13T16:33:18.095Z,71.80
2022-12-13T16:35:43.179Z,71.50
2022-12-13T16:38:12.847Z,71.10
2022-12-13T16:40:57.240Z,71.50
2022-12-13T16:43:33.833Z,71.70
2022-12-13T16:47:12.705Z,71.80
2022-12-13T16:48:53.825Z,71.60
2022-12-13T16:51:24.118Z,72.00
2022-12-13T16:53:52.274Z,72.10
2022-12-13T16:56:21.809Z,72.20
2022-12-13T16:58:50.844Z,72.30
2022-12-13T17:01:21.738Z,72.40
2022-12-13T17:03:51.072Z,72.70
2022-12-13T17:06:24.832Z,72.60
2022-12-13T17:08:53.073Z,72.90
2022-12-13T17:11:21.219Z,72.70
2022-12-13T17:13:49.754Z,72.60
2022-12-13T17:16:17.982Z,72.70
2022-12-13T17:18:46.379Z,72.70
2022-12-13T17:21:14.507Z,72.70
2022-12-13T17:23:44.271Z,72.90
2022-12-13T17:26:13.313Z,72.80
2022-12-13T17:28:41.565Z,73.00
2022-12-13T17:31:12.182Z,72.80
2022-12-13T17:33:40.485Z,72.60
2022-12-13T17:36:10.372Z,72.80
2022-12-13T17:38:39.451Z,72.60
2022-12-13T17:41:08.977Z,72.40
2022-12-13T17:43:37.610Z,72.70
2022-12-13T17:46:08.489Z,72.80
2022-12-13T17:48:40.699Z,72.80
2022-12-13T17:51:10.086Z,72.60
2022-12-13T17:53:39.888Z,72.50
2022-12-13T17:56:12.343Z,72.70
2022-12-13T17:58:41.154Z,72.70
2022-12-13T18:01:13.966Z,73.10
2022-12-13T18:03:42.586Z,73.00
2022-12-13T18:06:11.096Z,73.20
2022-12-13T18:08:40.625Z,73.10
2022-12-13T18:13:58.745Z,73.20
2022-12-13T18:16:35.860Z,72.80
2022-12-13T18:19:06.047Z,73.10
2022-12-13T18:21:35.411Z,72.80
2022-12-13T18:24:04.037Z,72.80
2022-12-13T18:26:39.437Z,72.90
2022-12-13T18:29:07.681Z,72.70
2022-12-13T18:31:35.870Z,72.70
2022-12-13T18:34:05.040Z,72.70
2022-12-13T18:36:33.275Z,72.60
2022-12-13T18:39:01.970Z,72.40
2022-12-13T18:41:31.801Z,72.40
2022-12-13T18:44:03.091Z,72.50
2022-12-13T18:46:33.380Z,72.40
2022-12-13T18:49:01.982Z,72.40
2022-12-13T18:51:30.172Z,72.30
2022-12-13T18:53:58.551Z,72.50
2022-12-13T18:56:26.737Z,72.40
2022-12-13T18:58:55.614Z,72.50
2022-12-13T19:01:27.142Z,72.50
2022-12-13T19:03:56.119Z,72.50
2022-12-13T19:06:25.840Z,72.40
2022-12-13T19:08:56.351Z,72.50
2022-12-13T19:11:25.983Z,72.40
2022-12-13T19:13:54.908Z,72.30
2022-12-13T19:16:25.523Z,72.40
2022-12-13T19:18:54.093Z,72.40
2022-12-13T19:21:23.777Z,72.30
2022-12-13T19:23:57.279Z,72.30
2022-12-13T19:26:26.610Z,72.20
2022-12-13T19:28:56.113Z,72.00
2022-12-13T19:31:30.986Z,72.10
2022-12-13T19:34:00.848Z,72.00
2022-12-13T19:36:33.405Z,72.10
2022-12-13T19:39:01.623Z,72.10
2022-12-13T19:41:32.294Z,72.00
2022-12-13T19:44:04.471Z,72.20
2022-12-13T19:46:34.408Z,72.20
2022-12-13T19:49:02.667Z,72.00
2022-12-13T19:51:35.871Z,72.00
2022-12-13T19:54:07.665Z,71.90
2022-12-13T19:56:35.798Z,71.80
2022-12-13T19:59:03.986Z,71.90
2022-12-13T20:01:33.567Z,71.80
2022-12-13T20:04:01.831Z,71.80
2022-12-13T20:06:30.262Z,71.40
2022-12-13T20:08:58.444Z,71.70
2022-12-13T20:11:26.711Z,71.90
2022-12-13T20:13:56.313Z,72.00
2022-12-13T20:16:26.653Z,72.30
2022-12-13T20:18:57.662Z,72.00
2022-12-13T20:21:27.476Z,72.30
2022-12-13T20:23:56.232Z,72.30
2022-12-13T20:26:26.201Z,72.50
2022-12-13T20:28:54.512Z,72.40
2022-12-13T20:31:24.362Z,72.80
2022-12-13T20:33:56.909Z,72.60
2022-12-13T20:36:27.209Z,72.70
2022-12-13T20:38:57.068Z,73.10
2022-12-13T20:41:26.408Z,72.80
2022-12-13T20:43:55.566Z,72.90
2022-12-13T20:46:24.434Z,73.00
2022-12-13T20:48:53.100Z,73.00
2022-12-13T20:51:24.621Z,73.10
2022-12-13T20:53:54.210Z,72.90
2022-12-13T20:56:24.389Z,72.90
2022-12-13T20:58:52.691Z,73.20
2022-12-13T21:01:22.863Z,73.10
2022-12-13T21:03:51.438Z,73.10
2022-12-13T21:06:19.599Z,73.20
2022-12-13T21:08:55.362Z,73.50
2022-12-13T21:11:26.440Z,73.60
2022-12-13T21:13:59.025Z,74.00
2022-12-13T21:16:32.371Z,73.80
2022-12-13T21:19:01.824Z,73.70
2022-12-13T21:21:31.078Z,73.80
2022-12-13T21:24:00.743Z,74.10
2022-12-13T21:26:34.973Z,74.30
2022-12-13T21:29:06.488Z,74.30
2022-12-13T21:31:35.891Z,74.30
2022-12-13T21:34:05.285Z,74.50
2022-12-13T21:36:34.819Z,74.40
2022-12-13T21:39:12.901Z,74.60
2022-12-13T21:41:41.533Z,74.40
2022-12-13T21:44:11.960Z,74.40
2022-12-13T21:47:22.286Z,74.40
2022-12-13T21:49:28.969Z,74.60
2022-12-13T21:51:57.194Z,74.60
2022-12-13T21:54:26.837Z,74.50
2022-12-13T21:57:12.659Z,74.50
2022-12-13T21:59:43.250Z,74.40
2022-12-13T22:02:15.968Z,74.70
2022-12-13T22:04:46.365Z,74.70
2022-12-13T22:07:16.824Z,74.70
2022-12-13T22:09:48.013Z,74.60
2022-12-13T22:12:23.178Z,74.60
2022-12-13T22:14:52.067Z,74.60
2022-12-13T22:17:24.981Z,74.50
2022-12-13T22:19:55.544Z,74.50
2022-12-13T22:22:25.347Z,74.50
2022-12-13T22:24:55.303Z,74.40
2022-12-13T22:27:25.432Z,74.10
2022-12-13T22:29:56.882Z,74.20
2022-12-13T22:32:26.394Z,74.10
2022-12-13T22:34:54.747Z,74.20
2022-12-13T22:37:23.600Z,74.30
2022-12-13T22:39:51.808Z,74.10
2022-12-13T22:42:21.312Z,74.30
2022-12-13T22:44:49.473Z,74.60
2022-12-13T22:47:25.596Z,74.70
2022-12-13T22:49:53.881Z,74.70
2022-12-13T22:52:22.093Z,74.80
2022-12-13T22:54:50.225Z,74.60
2022-12-13T22:57:18.384Z,74.70
2022-12-13T22:59:47.917Z,75.00
2022-12-13T23:02:16.101Z,75.10
2022-12-13T23:04:44.392Z,75.20
2022-12-13T23:07:12.607Z,75.20
2022-12-13T23:09:40.748Z,75.30
2022-12-13T23:12:28.034Z,75.30
2022-12-13T23:14:57.657Z,75.20
2022-12-13T23:17:25.806Z,75.40
2022-12-13T23:19:53.955Z,75.30
2022-12-13T23:22:23.137Z,75.30
2022-12-13T23:24:51.558Z,75.40
2022-12-13T23:27:21.104Z,75.50
2022-12-13T23:29:49.496Z,75.60
2022-12-13T23:32:19.400Z,75.50
2022-12-13T23:34:47.606Z,75.50
2022-12-13T23:37:15.742Z,75.40
2022-12-13T23:39:44.014Z,75.30
2022-12-13T23:42:12.163Z,75.30
2022-12-13T23:44:40.380Z,75.30
2022-12-13T23:47:08.544Z,75.60
2022-12-13T23:49:38.010Z,75.50
2022-12-13T23:52:06.198Z,75.30
2022-12-13T23:54:34.356Z,75.50
2022-12-13T23:57:02.479Z,75.50
2022-12-13T23:59:31.083Z,75.70
